sensor_id;sensor_type;location;lat;lon;timestamp;pressure;altitude;pressure_sealevel;temperature;humidity
71915;BME280;60387;49.994;14.660;2023-04-08T00:01:37;97761.88;;;8.80;55.16
71915;BME280;60387;49.994;14.660;2023-04-08T00:04:11;97757.34;;;8.75;54.80
71915;BME280;60387;49.994;14.660;2023-04-08T00:06:44;97750.09;;;8.71;55.41
71915;BME280;60387;49.994;14.660;2023-04-08T00:09:17;97755.19;;;8.72;55.73
71915;BME280;60387;49.994;14.660;2023-04-08T00:11:51;97753.59;;;8.71;55.30
71915;BME280;60387;49.994;14.660;2023-04-08T00:14:24;97749.28;;;8.70;55.01
71915;BME280;60387;49.994;14.660;2023-04-08T00:16:58;97752.28;;;8.69;54.21
71915;BME280;60387;49.994;14.660;2023-04-08T00:19:31;97750.66;;;8.68;55.67
71915;BME280;60387;49.994;14.660;2023-04-08T00:22:04;97750.91;;;8.71;55.47
71915;BME280;60387;49.994;14.660;2023-04-08T00:24:38;97752.34;;;8.64;55.86
71915;BME280;60387;49.994;14.660;2023-04-08T00:27:11;97753.44;;;8.63;56.95
71915;BME280;60387;49.994;14.660;2023-04-08T00:29:44;97753.22;;;8.59;57.69
71915;BME280;60387;49.994;14.660;2023-04-08T00:32:18;97749.47;;;8.55;56.09
71915;BME280;60387;49.994;14.660;2023-04-08T00:34:51;97751.13;;;8.51;56.16
71915;BME280;60387;49.994;14.660;2023-04-08T00:37:24;97764.63;;;8.51;56.97
71915;BME280;60387;49.994;14.660;2023-04-08T00:39:57;97766.25;;;8.52;56.55
71915;BME280;60387;49.994;14.660;2023-04-08T00:42:31;97766.25;;;8.52;56.01
71915;BME280;60387;49.994;14.660;2023-04-08T00:45:04;97766.25;;;8.52;56.40
71915;BME280;60387;49.994;14.660;2023-04-08T00:47:38;97752.75;;;8.52;55.71
71915;BME280;60387;49.994;14.660;2023-04-08T00:50:11;97754.84;;;8.55;55.52
71915;BME280;60387;49.994;14.660;2023-04-08T00:52:45;97753.56;;;8.53;54.68
71915;BME280;60387;49.994;14.660;2023-04-08T00:55:18;97764.28;;;8.58;55.16
71915;BME280;60387;49.994;14.660;2023-04-08T00:57:52;97755.41;;;8.57;54.00
71915;BME280;60387;49.994;14.660;2023-04-08T01:00:28;97749.13;;;8.62;55.62
71915;BME280;60387;49.994;14.660;2023-04-08T01:03:28;97747.22;;;8.62;54.67
71915;BME280;60387;49.994;14.660;2023-04-08T01:06:17;97745.63;;;8.61;55.35
71915;BME280;60387;49.994;14.660;2023-04-08T01:08:53;97749.69;;;8.59;55.26
71915;BME280;60387;49.994;14.660;2023-04-08T01:11:28;97741.59;;;8.59;55.20
71915;BME280;60387;49.994;14.660;2023-04-08T01:14:05;97748.91;;;8.58;55.37
71915;BME280;60387;49.994;14.660;2023-04-08T01:16:40;97760.22;;;8.60;54.81
71915;BME280;60387;49.994;14.660;2023-04-08T01:19:36;97759.13;;;8.61;55.31
71915;BME280;60387;49.994;14.660;2023-04-08T01:22:43;97742.97;;;8.56;54.64
71915;BME280;60387;49.994;14.660;2023-04-08T01:25:25;97752.63;;;8.62;54.48
71915;BME280;60387;49.994;14.660;2023-04-08T01:28:01;97751.03;;;8.61;55.00
71915;BME280;60387;49.994;14.660;2023-04-08T01:30:38;97754.81;;;8.60;55.36
71915;BME280;60387;49.994;14.660;2023-04-08T01:33:14;97766.44;;;8.61;54.99
71915;BME280;60387;49.994;14.660;2023-04-08T01:35:50;97759.94;;;8.62;55.30
71915;BME280;60387;49.994;14.660;2023-04-08T01:38:24;97749.13;;;8.62;54.77
71915;BME280;60387;49.994;14.660;2023-04-08T01:40:58;97756.13;;;8.63;55.27
71915;BME280;60387;49.994;14.660;2023-04-08T01:43:32;97762.63;;;8.62;54.87
71915;BME280;60387;49.994;14.660;2023-04-08T01:46:07;97762.91;;;8.60;54.46
71915;BME280;60387;49.994;14.660;2023-04-08T01:48:40;97754.59;;;8.57;55.24
71915;BME280;60387;49.994;14.660;2023-04-08T01:51:15;97751.38;;;8.55;54.83
71915;BME280;60387;49.994;14.660;2023-04-08T01:53:49;97761.59;;;8.58;55.72
71915;BME280;60387;49.994;14.660;2023-04-08T01:56:25;97757.00;;;8.58;55.75
71915;BME280;60387;49.994;14.660;2023-04-08T01:59:02;97765.09;;;8.58;55.64
71915;BME280;60387;49.994;14.660;2023-04-08T02:01:36;97758.09;;;8.57;57.17
71915;BME280;60387;49.994;14.660;2023-04-08T02:04:11;97759.75;;;8.53;56.55
71915;BME280;60387;49.994;14.660;2023-04-08T02:06:45;97754.94;;;8.50;56.08
71915;BME280;60387;49.994;14.660;2023-04-08T02:09:19;97761.13;;;8.51;55.82
71915;BME280;60387;49.994;14.660;2023-04-08T02:11:52;97760.88;;;8.47;56.82
71915;BME280;60387;49.994;14.660;2023-04-08T02:14:27;97753.31;;;8.49;57.32
71915;BME280;60387;49.994;14.660;2023-04-08T02:19:59;97759.81;;;8.48;55.55
71915;BME280;60387;49.994;14.660;2023-04-08T02:22:46;97758.13;;;8.52;56.64
71915;BME280;60387;49.994;14.660;2023-04-08T02:25:23;97763.53;;;8.52;56.64
71915;BME280;60387;49.994;14.660;2023-04-08T02:27:57;97761.13;;;8.51;55.82
71915;BME280;60387;49.994;14.660;2023-04-08T02:30:33;97761.13;;;8.51;57.41
71915;BME280;60387;49.994;14.660;2023-04-08T02:33:08;97764.69;;;8.46;57.80
71915;BME280;60387;49.994;14.660;2023-04-08T02:35:42;97768.72;;;8.49;56.43
71915;BME280;60387;49.994;14.660;2023-04-08T02:38:16;97765.53;;;8.42;57.22
71915;BME280;60387;49.994;14.660;2023-04-08T02:40:50;97773.31;;;8.48;56.60
71915;BME280;60387;49.994;14.660;2023-04-08T02:43:24;97763.38;;;8.44;57.60
71915;BME280;60387;49.994;14.660;2023-04-08T02:45:58;97771.25;;;8.40;57.08
71915;BME280;60387;49.994;14.660;2023-04-08T02:48:32;97777.19;;;8.37;55.99
71915;BME280;60387;49.994;14.660;2023-04-08T02:51:06;97784.19;;;8.38;57.03
71915;BME280;60387;49.994;14.660;2023-04-08T02:53:39;97773.69;;;8.37;58.37
71915;BME280;60387;49.994;14.660;2023-04-08T02:56:12;97771.56;;;8.34;58.27
71915;BME280;60387;49.994;14.660;2023-04-08T02:58:46;97774.03;;;8.30;57.61
71915;BME280;60387;49.994;14.660;2023-04-08T03:01:19;97775.94;;;8.30;58.19
71915;BME280;60387;49.994;14.660;2023-04-08T03:03:52;97779.97;;;8.32;56.70
71915;BME280;60387;49.994;14.660;2023-04-08T03:06:26;97773.22;;;8.30;57.65
71915;BME280;60387;49.994;14.660;2023-04-08T03:08:59;97772.41;;;8.29;57.19
71915;BME280;60387;49.994;14.660;2023-04-08T03:11:32;97785.88;;;8.34;57.25
71915;BME280;60387;49.994;14.660;2023-04-08T03:14:06;97784.78;;;8.35;58.25
71915;BME280;60387;49.994;14.660;2023-04-08T03:16:39;97777.50;;;8.36;57.25
71915;BME280;60387;49.994;14.660;2023-04-08T03:19:12;97786.38;;;8.36;58.84
71915;BME280;60387;49.994;14.660;2023-04-08T03:21:46;97783.16;;;8.34;58.00
71915;BME280;60387;49.994;14.660;2023-04-08T03:24:19;97779.66;;;8.34;57.02
71915;BME280;60387;49.994;14.660;2023-04-08T03:26:52;97784.78;;;8.35;57.40
71915;BME280;60387;49.994;14.660;2023-04-08T03:29:26;97788.00;;;8.37;56.76
71915;BME280;60387;49.994;14.660;2023-04-08T03:31:59;97788.50;;;8.39;56.26
71915;BME280;60387;49.994;14.660;2023-04-08T03:34:35;97787.66;;;8.44;56.28
71915;BME280;60387;49.994;14.660;2023-04-08T03:37:09;97788.47;;;8.44;56.37
71915;BME280;60387;49.994;14.660;2023-04-08T03:39:42;97779.56;;;8.44;56.36
71915;BME280;60387;49.994;14.660;2023-04-08T03:42:15;97778.75;;;8.43;56.13
71915;BME280;60387;49.994;14.660;2023-04-08T03:44:49;97782.56;;;8.42;56.44
71915;BME280;60387;49.994;14.660;2023-04-08T03:47:22;97787.94;;;8.42;55.96
71915;BME280;60387;49.994;14.660;2023-04-08T03:49:56;97790.06;;;8.45;56.85
71915;BME280;60387;49.994;14.660;2023-04-08T03:52:29;97790.66;;;8.42;56.79
71915;BME280;60387;49.994;14.660;2023-04-08T03:55:02;97784.19;;;8.38;56.11
71915;BME280;60387;49.994;14.660;2023-04-08T03:57:36;97794.47;;;8.36;56.35
71915;BME280;60387;49.994;14.660;2023-04-08T04:00:09;97795.00;;;8.38;56.68
71915;BME280;60387;49.994;14.660;2023-04-08T04:02:43;97798.00;;;8.37;56.40
71915;BME280;60387;49.994;14.660;2023-04-08T04:05:16;97800.38;;;8.38;56.91
71915;BME280;60387;49.994;14.660;2023-04-08T04:07:49;97788.81;;;8.38;56.73
71915;BME280;60387;49.994;14.660;2023-04-08T04:10:23;97800.13;;;8.40;56.77
71915;BME280;60387;49.994;14.660;2023-04-08T04:12:56;97795.00;;;8.38;55.86
71915;BME280;60387;49.994;14.660;2023-04-08T04:15:29;97804.66;;;8.44;55.74
71915;BME280;60387;49.994;14.660;2023-04-08T04:18:02;97808.97;;;8.45;55.07
71915;BME280;60387;49.994;14.660;2023-04-08T04:20:40;97815.41;;;8.49;55.77
71915;BME280;60387;49.994;14.660;2023-04-08T04:23:13;97817.53;;;8.52;55.73
71915;BME280;60387;49.994;14.660;2023-04-08T04:25:47;97815.94;;;8.51;56.07
71915;BME280;60387;49.994;14.660;2023-04-08T04:28:20;97820.81;;;8.49;55.25
71915;BME280;60387;49.994;14.660;2023-04-08T04:30:53;97825.13;;;8.50;54.90
71915;BME280;60387;49.994;14.660;2023-04-08T04:33:26;97821.31;;;8.51;55.26
71915;BME280;60387;49.994;14.660;2023-04-08T04:36:00;97823.75;;;8.53;54.90
71915;BME280;60387;49.994;14.660;2023-04-08T04:38:33;97815.09;;;8.51;54.97
71915;BME280;60387;49.994;14.660;2023-04-08T04:41:07;97834.75;;;8.56;54.85
71915;BME280;60387;49.994;14.660;2023-04-08T04:43:40;97827.75;;;8.55;54.46
71915;BME280;60387;49.994;14.660;2023-04-08T04:46:13;97831.22;;;8.61;54.76
71915;BME280;60387;49.994;14.660;2023-04-08T04:48:47;97832.84;;;8.62;55.01
71915;BME280;60387;49.994;14.660;2023-04-08T04:51:20;97834.44;;;8.63;54.91
71915;BME280;60387;49.994;14.660;2023-04-08T04:53:53;97831.75;;;8.63;54.53
71915;BME280;60387;49.994;14.660;2023-04-08T04:56:26;97833.63;;;8.62;55.70
71915;BME280;60387;49.994;14.660;2023-04-08T04:59:00;97839.34;;;8.61;55.28
71915;BME280;60387;49.994;14.660;2023-04-08T05:01:33;97841.69;;;8.67;54.84
71915;BME280;60387;49.994;14.660;2023-04-08T05:04:07;97848.09;;;8.71;55.45
71915;BME280;60387;49.994;14.660;2023-04-08T05:06:40;97859.44;;;8.73;55.70
71915;BME280;60387;49.994;14.660;2023-04-08T05:09:13;97854.31;;;8.72;55.65
71915;BME280;60387;49.994;14.660;2023-04-08T05:11:47;97855.66;;;8.74;55.60
71915;BME280;60387;49.994;14.660;2023-04-08T05:14:20;97853.50;;;8.71;55.25
71915;BME280;60387;49.994;14.660;2023-04-08T05:16:53;97859.28;;;8.60;56.50
71915;BME280;60387;49.994;14.660;2023-04-08T05:19:27;97859.06;;;8.56;55.15
71915;BME280;60387;49.994;14.660;2023-04-08T05:22:00;97859.16;;;8.46;56.86
71915;BME280;60387;49.994;14.660;2023-04-08T05:24:33;97865.13;;;8.43;57.09
71915;BME280;60387;49.994;14.660;2023-04-08T05:27:07;97865.22;;;8.33;57.41
71915;BME280;60387;49.994;14.660;2023-04-08T05:29:40;97870.47;;;8.15;58.34
71915;BME280;60387;49.994;14.660;2023-04-08T05:32:13;97869.88;;;8.18;58.26
71915;BME280;60387;49.994;14.660;2023-04-08T05:34:47;97867.50;;;8.16;58.61
71915;BME280;60387;49.994;14.660;2023-04-08T05:37:20;97878.03;;;8.13;57.16
71915;BME280;60387;49.994;14.660;2023-04-08T05:39:53;97872.91;;;8.11;58.04
71915;BME280;60387;49.994;14.660;2023-04-08T05:42:26;97870.75;;;8.13;57.11
71915;BME280;60387;49.994;14.660;2023-04-08T05:45:00;97879.38;;;8.15;56.55
71915;BME280;60387;49.994;14.660;2023-04-08T05:47:33;97875.06;;;8.14;57.03
71915;BME280;60387;49.994;14.660;2023-04-08T05:50:07;97884.75;;;8.20;56.72
71915;BME280;60387;49.994;14.660;2023-04-08T05:52:41;97877.75;;;8.19;56.13
71915;BME280;60387;49.994;14.660;2023-04-08T05:55:15;97887.41;;;8.25;56.16
71915;BME280;60387;49.994;14.660;2023-04-08T05:57:49;97896.28;;;8.31;56.66
71915;BME280;60387;49.994;14.660;2023-04-08T06:00:22;97894.09;;;8.33;56.06
71915;BME280;60387;49.994;14.660;2023-04-08T06:02:55;97896.75;;;8.38;55.96
71915;BME280;60387;49.994;14.660;2023-04-08T06:05:30;97908.31;;;8.43;55.80
71915;BME280;60387;49.994;14.660;2023-04-08T06:08:03;97895.34;;;8.45;56.05
71915;BME280;60387;49.994;14.660;2023-04-08T06:10:37;97902.59;;;8.50;56.15
71915;BME280;60387;49.994;14.660;2023-04-08T06:13:10;97897.69;;;8.52;55.81
71915;BME280;60387;49.994;14.660;2023-04-08T06:15:43;97892.03;;;8.53;55.49
71915;BME280;60387;49.994;14.660;2023-04-08T06:18:17;97905.59;;;8.48;56.81
71915;BME280;60387;49.994;14.660;2023-04-08T06:20:50;97893.94;;;8.53;55.00
71915;BME280;60387;49.994;14.660;2023-04-08T06:23:23;97903.34;;;8.55;55.80
71915;BME280;60387;49.994;14.660;2023-04-08T06:25:57;97894.16;;;8.56;56.26
71915;BME280;60387;49.994;14.660;2023-04-08T06:28:30;97901.44;;;8.61;55.63
71915;BME280;60387;49.994;14.660;2023-04-08T06:31:04;97901.13;;;8.62;55.28
71915;BME280;60387;49.994;14.660;2023-04-08T06:33:37;97901.09;;;8.67;56.13
71915;BME280;60387;49.994;14.660;2023-04-08T06:36:10;97918.03;;;8.73;55.78
71915;BME280;60387;49.994;14.660;2023-04-08T06:38:43;97920.75;;;8.73;56.06
71915;BME280;60387;49.994;14.660;2023-04-08T06:41:17;97915.94;;;8.70;56.35
71915;BME280;60387;49.994;14.660;2023-04-08T06:43:50;97920.50;;;8.69;56.03
71915;BME280;60387;49.994;14.660;2023-04-08T06:46:23;97932.91;;;8.70;56.82
71915;BME280;60387;49.994;14.660;2023-04-08T06:48:57;97919.47;;;8.65;57.73
71915;BME280;60387;49.994;14.660;2023-04-08T06:51:30;97919.69;;;8.69;57.39
71915;BME280;60387;49.994;14.660;2023-04-08T06:54:03;97929.13;;;8.71;57.11
71915;BME280;60387;49.994;14.660;2023-04-08T06:56:37;97923.09;;;8.79;57.29
71915;BME280;60387;49.994;14.660;2023-04-08T06:59:10;97930.00;;;8.90;56.93
71915;BME280;60387;49.994;14.660;2023-04-08T07:01:43;97926.41;;;9.00;58.64
71915;BME280;60387;49.994;14.660;2023-04-08T07:04:16;97926.53;;;9.13;56.82
71915;BME280;60387;49.994;14.660;2023-04-08T07:06:50;97936.91;;;9.30;56.20
71915;BME280;60387;49.994;14.660;2023-04-08T07:09:23;97937.03;;;9.43;55.66
71915;BME280;60387;49.994;14.660;2023-04-08T07:11:56;97939.25;;;9.59;56.76
71915;BME280;60387;49.994;14.660;2023-04-08T07:14:30;97949.06;;;9.74;55.89
71915;BME280;60387;49.994;14.660;2023-04-08T07:17:03;97954.34;;;9.84;56.19
71915;BME280;60387;49.994;14.660;2023-04-08T07:19:36;97954.22;;;9.94;55.99
71915;BME280;60387;49.994;14.660;2023-04-08T07:22:10;97953.91;;;9.95;55.79
71915;BME280;60387;49.994;14.660;2023-04-08T07:24:43;97956.63;;;9.95;55.25
71915;BME280;60387;49.994;14.660;2023-04-08T07:27:16;97950.44;;;9.95;56.46
71915;BME280;60387;49.994;14.660;2023-04-08T07:29:52;97952.09;;;9.91;55.62
71915;BME280;60387;49.994;14.660;2023-04-08T07:32:26;97960.19;;;9.91;55.73
71915;BME280;60387;49.994;14.660;2023-04-08T07:35:00;97960.78;;;9.88;56.47
71915;BME280;60387;49.994;14.660;2023-04-08T07:37:33;97973.22;;;9.89;56.04
71915;BME280;60387;49.994;14.660;2023-04-08T07:40:07;97971.63;;;9.88;56.14
71915;BME280;60387;49.994;14.660;2023-04-08T07:42:40;97963.56;;;9.83;55.71
71915;BME280;60387;49.994;14.660;2023-04-08T07:45:14;97974.03;;;9.89;55.12
71915;BME280;60387;49.994;14.660;2023-04-08T07:47:47;97979.78;;;9.83;56.49
71915;BME280;60387;49.994;14.660;2023-04-08T07:50:21;97980.84;;;9.87;55.83
71915;BME280;60387;49.994;14.660;2023-04-08T07:52:54;97978.63;;;9.89;55.95
71915;BME280;60387;49.994;14.660;2023-04-08T07:55:27;97985.38;;;9.91;56.69
71915;BME280;60387;49.994;14.660;2023-04-08T07:58:00;97984.09;;;9.84;57.44
71915;BME280;60387;49.994;14.660;2023-04-08T08:00:34;97996.03;;;9.83;56.27
71915;BME280;60387;49.994;14.660;2023-04-08T08:03:07;97996.59;;;9.80;56.45
71915;BME280;60387;49.994;14.660;2023-04-08T08:05:40;97997.44;;;9.80;55.90
71915;BME280;60387;49.994;14.660;2023-04-08T08:08:14;98007.44;;;9.80;56.97
71915;BME280;60387;49.994;14.660;2023-04-08T08:10:47;97995.13;;;9.69;56.30
71915;BME280;60387;49.994;14.660;2023-04-08T08:13:20;98005.63;;;9.70;57.27
71915;BME280;60387;49.994;14.660;2023-04-08T08:15:54;98013.59;;;9.62;57.60
71915;BME280;60387;49.994;14.660;2023-04-08T08:18:27;98010.53;;;9.68;56.63
71915;BME280;60387;49.994;14.660;2023-04-08T08:21:00;98015.16;;;9.68;56.53
71915;BME280;60387;49.994;14.660;2023-04-08T08:23:34;98015.47;;;9.61;56.79
71915;BME280;60387;49.994;14.660;2023-04-08T08:26:08;98026.31;;;9.61;57.63
71915;BME280;60387;49.994;14.660;2023-04-08T08:28:41;98031.19;;;9.59;57.19
71915;BME280;60387;49.994;14.660;2023-04-08T08:31:15;98029.88;;;9.57;57.01
71915;BME280;60387;49.994;14.660;2023-04-08T08:33:48;98032.34;;;9.53;58.74
71915;BME280;60387;49.994;14.660;2023-04-08T08:36:21;98032.75;;;9.42;58.23
71915;BME280;60387;49.994;14.660;2023-04-08T08:38:55;98030.56;;;9.44;58.41
71915;BME280;60387;49.994;14.660;2023-04-08T08:41:33;98034.59;;;9.47;57.71
71915;BME280;60387;49.994;14.660;2023-04-08T08:44:07;98039.47;;;9.44;58.29
71915;BME280;60387;49.994;14.660;2023-04-08T08:46:46;98050.63;;;9.38;58.73
71915;BME280;60387;49.994;14.660;2023-04-08T08:49:19;98052.22;;;9.39;58.18
71915;BME280;60387;49.994;14.660;2023-04-08T08:51:53;98046.88;;;9.34;60.06
71915;BME280;60387;49.994;14.660;2023-04-08T08:54:27;98049.91;;;9.28;57.75
71915;BME280;60387;49.994;14.660;2023-04-08T08:57:00;98063.66;;;9.31;57.79
71915;BME280;60387;49.994;14.660;2023-04-08T08:59:33;98058.25;;;9.31;58.55
71915;BME280;60387;49.994;14.660;2023-04-08T09:02:25;98058.94;;;9.47;57.92
71915;BME280;60387;49.994;14.660;2023-04-08T09:05:01;98067.22;;;9.55;58.51
71915;BME280;60387;49.994;14.660;2023-04-08T09:07:36;98064.97;;;9.62;57.62
71915;BME280;60387;49.994;14.660;2023-04-08T09:10:09;98067.34;;;9.68;57.62
71915;BME280;60387;49.994;14.660;2023-04-08T09:12:53;98073.50;;;9.74;58.37
71915;BME280;60387;49.994;14.660;2023-04-08T09:15:27;98066.38;;;9.83;58.61
71915;BME280;60387;49.994;14.660;2023-04-08T09:18:00;98083.69;;;9.82;58.21
71915;BME280;60387;49.994;14.660;2023-04-08T09:20:33;98082.09;;;9.81;57.87
71915;BME280;60387;49.994;14.660;2023-04-08T09:23:06;98080.44;;;9.85;57.94
71915;BME280;60387;49.994;14.660;2023-04-08T09:25:40;98091.69;;;9.92;58.19
71915;BME280;60387;49.994;14.660;2023-04-08T09:28:22;98099.75;;;9.97;57.56
71915;BME280;60387;49.994;14.660;2023-04-08T09:30:55;98100.34;;;9.94;57.39
71915;BME280;60387;49.994;14.660;2023-04-08T09:33:29;98092.94;;;10.04;57.06
71915;BME280;60387;49.994;14.660;2023-04-08T09:36:03;98094.03;;;10.03;57.67
71915;BME280;60387;49.994;14.660;2023-04-08T09:38:36;98093.47;;;10.06;57.48
71915;BME280;60387;49.994;14.660;2023-04-08T09:41:13;98107.03;;;10.01;57.70
71915;BME280;60387;49.994;14.660;2023-04-08T09:43:48;98095.38;;;10.01;57.69
71915;BME280;60387;49.994;14.660;2023-04-08T09:46:30;98100.78;;;10.06;57.48
71915;BME280;60387;49.994;14.660;2023-04-08T09:49:37;98096.75;;;10.03;56.99
71915;BME280;60387;49.994;14.660;2023-04-08T09:52:22;98110.53;;;10.02;57.90
71915;BME280;60387;49.994;14.660;2023-04-08T09:55:03;98105.84;;;10.12;57.54
71915;BME280;60387;49.994;14.660;2023-04-08T09:57:49;98106.75;;;10.26;57.27
71915;BME280;60387;49.994;14.660;2023-04-08T10:00:33;98104.59;;;10.47;57.37
71915;BME280;60387;49.994;14.660;2023-04-08T10:05:47;98112.38;;;10.72;56.40
71915;BME280;60387;49.994;14.660;2023-04-08T10:08:24;98111.28;;;10.91;57.11
71915;BME280;60387;49.994;14.660;2023-04-08T10:10:59;98102.50;;;10.99;56.31
71915;BME280;60387;49.994;14.660;2023-04-08T10:13:32;98108.03;;;11.08;55.97
71915;BME280;60387;49.994;14.660;2023-04-08T10:18:49;98108.97;;;11.35;55.02
71915;BME280;60387;49.994;14.660;2023-04-08T10:24:09;98097.72;;;11.60;54.79
71915;BME280;60387;49.994;14.660;2023-04-08T10:26:44;98104.34;;;11.68;54.27
71915;BME280;60387;49.994;14.660;2023-04-08T10:31:51;98110.38;;;11.65;54.10
71915;BME280;60387;49.994;14.660;2023-04-08T10:34:25;98110.47;;;11.41;52.86
71915;BME280;60387;49.994;14.660;2023-04-08T10:36:59;98114.03;;;11.23;53.48
71915;BME280;60387;49.994;14.660;2023-04-08T10:39:32;98118.56;;;11.28;53.25
71915;BME280;60387;49.994;14.660;2023-04-08T10:42:07;98118.28;;;11.29;53.75
71915;BME280;60387;49.994;14.660;2023-04-08T10:44:43;98129.50;;;11.23;53.84
71915;BME280;60387;49.994;14.660;2023-04-08T10:47:24;98123.88;;;11.19;53.73
71915;BME280;60387;49.994;14.660;2023-04-08T10:49:57;98123.16;;;11.14;53.59
71915;BME280;60387;49.994;14.660;2023-04-08T10:52:31;98125.31;;;11.12;54.24
71915;BME280;60387;49.994;14.660;2023-04-08T10:55:04;98119.41;;;11.10;54.62
71915;BME280;60387;49.994;14.660;2023-04-08T10:57:38;98127.03;;;11.08;54.42
71915;BME280;60387;49.994;14.660;2023-04-08T11:00:17;98129.72;;;11.08;54.46
71915;BME280;60387;49.994;14.660;2023-04-08T11:02:50;98132.31;;;10.99;54.27
71915;BME280;60387;49.994;14.660;2023-04-08T11:05:24;98130.91;;;11.02;54.61
71915;BME280;60387;49.994;14.660;2023-04-08T11:08:00;98129.91;;;10.98;54.59
71915;BME280;60387;49.994;14.660;2023-04-08T11:10:37;98125.78;;;11.00;54.38
71915;BME280;60387;49.994;14.660;2023-04-08T11:13:10;98128.78;;;10.99;54.55
71915;BME280;60387;49.994;14.660;2023-04-08T11:15:44;98129.91;;;10.98;54.47
71915;BME280;60387;49.994;14.660;2023-04-08T11:18:17;98132.72;;;11.06;54.77
71915;BME280;60387;49.994;14.660;2023-04-08T11:20:51;98124.31;;;11.08;54.30
71915;BME280;60387;49.994;14.660;2023-04-08T11:23:25;98136.38;;;11.15;54.36
71915;BME280;60387;49.994;14.660;2023-04-08T11:25:58;98140.41;;;11.18;54.21
71915;BME280;60387;49.994;14.660;2023-04-08T11:28:31;98134.28;;;11.12;54.07
71915;BME280;60387;49.994;14.660;2023-04-08T11:31:06;98139.41;;;11.14;54.25
71915;BME280;60387;49.994;14.660;2023-04-08T11:33:47;98136.09;;;11.17;54.47
71915;BME280;60387;49.994;14.660;2023-04-08T11:36:20;98142.84;;;11.19;54.62
71915;BME280;60387;49.994;14.660;2023-04-08T11:38:54;98148.78;;;11.21;53.91
71915;BME280;60387;49.994;14.660;2023-04-08T11:41:35;98156.41;;;11.19;53.85
71915;BME280;60387;49.994;14.660;2023-04-08T11:44:08;98142.56;;;11.21;53.83
71915;BME280;60387;49.994;14.660;2023-04-08T11:46:51;98152.31;;;11.22;53.58
71915;BME280;60387;49.994;14.660;2023-04-08T11:49:24;98155.03;;;11.22;54.33
71915;BME280;60387;49.994;14.660;2023-04-08T11:51:58;98156.19;;;11.16;53.58
71915;BME280;60387;49.994;14.660;2023-04-08T11:54:32;98158.41;;;11.14;53.95
71915;BME280;60387;49.994;14.660;2023-04-08T11:57:05;98148.56;;;11.18;53.51
71915;BME280;60387;49.994;14.660;2023-04-08T11:59:38;98150.97;;;11.19;53.50
71915;BME280;60387;49.994;14.660;2023-04-08T12:02:14;98145.28;;;11.21;54.18
71915;BME280;60387;49.994;14.660;2023-04-08T12:04:48;98152.22;;;11.27;53.47
71915;BME280;60387;49.994;14.660;2023-04-08T12:07:21;98149.44;;;11.32;53.60
71915;BME280;60387;49.994;14.660;2023-04-08T12:09:54;98138.16;;;11.25;54.10
71915;BME280;60387;49.994;14.660;2023-04-08T12:12:28;98154.41;;;11.25;54.08
71915;BME280;60387;49.994;14.660;2023-04-08T12:15:01;98160.28;;;11.32;53.34
71915;BME280;60387;49.994;14.660;2023-04-08T12:17:34;98157.06;;;11.30;53.34
71915;BME280;60387;49.994;14.660;2023-04-08T12:20:09;98160.50;;;11.35;53.62
71915;BME280;60387;49.994;14.660;2023-04-08T12:22:42;98170.53;;;11.35;54.01
71915;BME280;60387;49.994;14.660;2023-04-08T12:25:16;98163.28;;;11.30;53.92
71915;BME280;60387;49.994;14.660;2023-04-08T12:27:49;98173.34;;;11.30;53.21
71915;BME280;60387;49.994;14.660;2023-04-08T12:30:22;98171.41;;;11.12;53.94
71915;BME280;60387;49.994;14.660;2023-04-08T12:32:56;98172.16;;;10.99;53.80
71915;BME280;60387;49.994;14.660;2023-04-08T12:35:29;98168.78;;;10.88;54.18
71915;BME280;60387;49.994;14.660;2023-04-08T12:38:02;98175.28;;;10.87;53.71
71915;BME280;60387;49.994;14.660;2023-04-08T12:40:35;98168.22;;;10.91;53.88
71915;BME280;60387;49.994;14.660;2023-04-08T12:43:09;98180.34;;;10.94;54.10
71915;BME280;60387;49.994;14.660;2023-04-08T12:45:42;98184.00;;;11.03;53.46
71915;BME280;60387;49.994;14.660;2023-04-08T12:48:15;98179.03;;;11.10;53.58
71915;BME280;60387;49.994;14.660;2023-04-08T12:50:49;98172.69;;;11.19;53.35
71915;BME280;60387;49.994;14.660;2023-04-08T12:53:22;98177.72;;;11.26;53.42
71915;BME280;60387;49.994;14.660;2023-04-08T12:55:55;98177.00;;;11.39;53.41
71915;BME280;60387;49.994;14.660;2023-04-08T12:58:28;98176.56;;;11.32;53.17
71915;BME280;60387;49.994;14.660;2023-04-08T13:01:02;98174.41;;;11.47;53.16
71915;BME280;60387;49.994;14.660;2023-04-08T13:03:35;98171.13;;;11.50;52.46
71915;BME280;60387;49.994;14.660;2023-04-08T13:06:08;98171.47;;;11.62;53.10
71915;BME280;60387;49.994;14.660;2023-04-08T13:08:42;98174.09;;;11.67;51.51
71915;BME280;60387;49.994;14.660;2023-04-08T13:11:15;98172.78;;;11.65;51.93
71915;BME280;60387;49.994;14.660;2023-04-08T13:13:48;98183.56;;;11.70;52.33
71915;BME280;60387;49.994;14.660;2023-04-08T13:16:22;98161.34;;;11.68;51.98
71915;BME280;60387;49.994;14.660;2023-04-08T13:18:55;98180.97;;;11.78;52.17
71915;BME280;60387;49.994;14.660;2023-04-08T13:21:28;98174.97;;;11.95;52.43
71915;BME280;60387;49.994;14.660;2023-04-08T13:24:01;98182.66;;;12.06;51.66
71915;BME280;60387;49.994;14.660;2023-04-08T13:26:35;98183.47;;;12.07;51.06
71915;BME280;60387;49.994;14.660;2023-04-08T13:29:08;98195.63;;;12.09;51.41
71915;BME280;60387;49.994;14.660;2023-04-08T13:31:41;98186.97;;;12.07;51.61
71915;BME280;60387;49.994;14.660;2023-04-08T13:34:15;98184.16;;;12.12;51.63
71915;BME280;60387;49.994;14.660;2023-04-08T13:36:48;98185.56;;;12.10;51.35
71915;BME280;60387;49.994;14.660;2023-04-08T13:39:21;98189.09;;;12.10;50.92
71915;BME280;60387;49.994;14.660;2023-04-08T13:41:54;98183.81;;;12.00;50.83
71915;BME280;60387;49.994;14.660;2023-04-08T13:44:28;98176.78;;;11.99;50.92
71915;BME280;60387;49.994;14.660;2023-04-08T13:47:01;98187.44;;;11.96;51.13
71915;BME280;60387;49.994;14.660;2023-04-08T13:49:34;98176.00;;;11.99;50.86